CheckWX is a tool to help pilots better visualize weather data.  It is not intended as a substitute for an official pre-flight weather briefing.

10:08:38 UTC

YHID TAF
Horn Island Airport
Horn Island, Australia
TAF YHID 260502Z 2606/2706 13014KT 9999 FEW025

Jun-26@
06:00 UTC

Jun-26 @ 06:00 UTC

Jun-27@
06:00 UTC

Jun-27 @ 06:00 UTC

TAF YHID 260502Z 2606/2706 13014KT 9999 FEW025
Wind
  • 130° at 14 KTS
Cloud Levels
  • Few at 2,500' AGL